sensor_id;sensor_type;location;lat;lon;timestamp;P1;durP1;ratioP1;P2;durP2;ratioP2
7173;SDS011;3628;48.654;8.932;2023-01-24T00:00:10;12.60;;;7.70;;
7173;SDS011;3628;48.654;8.932;2023-01-24T00:02:37;11.70;;;7.83;;
7173;SDS011;3628;48.654;8.932;2023-01-24T00:05:03;10.93;;;7.83;;
7173;SDS011;3628;48.654;8.932;2023-01-24T00:07:29;11.43;;;7.83;;
7173;SDS011;3628;48.654;8.932;2023-01-24T00:09:55;12.20;;;8.40;;
7173;SDS011;3628;48.654;8.932;2023-01-24T00:12:21;12.43;;;8.73;;
7173;SDS011;3628;48.654;8.932;2023-01-24T00:14:46;11.80;;;8.40;;
7173;SDS011;3628;48.654;8.932;2023-01-24T00:17:12;13.33;;;9.10;;
7173;SDS011;3628;48.654;8.932;2023-01-24T00:19:37;12.13;;;8.63;;
7173;SDS011;3628;48.654;8.932;2023-01-24T00:22:04;11.63;;;8.23;;
7173;SDS011;3628;48.654;8.932;2023-01-24T00:24:32;13.00;;;8.83;;
7173;SDS011;3628;48.654;8.932;2023-01-24T00:26:59;11.23;;;8.33;;
7173;SDS011;3628;48.654;8.932;2023-01-24T00:29:25;13.27;;;9.27;;
7173;SDS011;3628;48.654;8.932;2023-01-24T00:31:51;15.37;;;8.70;;
7173;SDS011;3628;48.654;8.932;2023-01-24T00:34:16;12.57;;;8.80;;
7173;SDS011;3628;48.654;8.932;2023-01-24T00:36:42;13.03;;;9.30;;
7173;SDS011;3628;48.654;8.932;2023-01-24T00:39:08;12.23;;;9.03;;
7173;SDS011;3628;48.654;8.932;2023-01-24T00:41:35;12.23;;;8.53;;
7173;SDS011;3628;48.654;8.932;2023-01-24T00:44:00;13.47;;;9.40;;
7173;SDS011;3628;48.654;8.932;2023-01-24T00:46:26;12.93;;;8.67;;
7173;SDS011;3628;48.654;8.932;2023-01-24T00:48:52;13.23;;;8.67;;
7173;SDS011;3628;48.654;8.932;2023-01-24T00:51:17;12.50;;;9.20;;
7173;SDS011;3628;48.654;8.932;2023-01-24T00:53:43;13.00;;;8.80;;
7173;SDS011;3628;48.654;8.932;2023-01-24T00:56:08;11.33;;;8.37;;
7173;SDS011;3628;48.654;8.932;2023-01-24T00:58:34;13.67;;;8.93;;
7173;SDS011;3628;48.654;8.932;2023-01-24T01:00:59;14.13;;;8.67;;
7173;SDS011;3628;48.654;8.932;2023-01-24T01:03:28;11.43;;;8.93;;
7173;SDS011;3628;48.654;8.932;2023-01-24T01:05:57;11.73;;;8.57;;
7173;SDS011;3628;48.654;8.932;2023-01-24T01:08:24;12.57;;;8.53;;
7173;SDS011;3628;48.654;8.932;2023-01-24T01:10:50;10.83;;;8.27;;
7173;SDS011;3628;48.654;8.932;2023-01-24T01:13:16;13.27;;;8.80;;
7173;SDS011;3628;48.654;8.932;2023-01-24T01:15:41;10.80;;;7.40;;
7173;SDS011;3628;48.654;8.932;2023-01-24T01:18:07;12.37;;;7.80;;
7173;SDS011;3628;48.654;8.932;2023-01-24T01:20:33;11.33;;;7.87;;
7173;SDS011;3628;48.654;8.932;2023-01-24T01:22:58;12.90;;;8.30;;
7173;SDS011;3628;48.654;8.932;2023-01-24T01:25:24;12.30;;;8.60;;
7173;SDS011;3628;48.654;8.932;2023-01-24T01:27:49;13.40;;;8.13;;
7173;SDS011;3628;48.654;8.932;2023-01-24T01:30:15;12.13;;;8.17;;
7173;SDS011;3628;48.654;8.932;2023-01-24T01:32:41;12.10;;;7.40;;
7173;SDS011;3628;48.654;8.932;2023-01-24T01:35:06;9.57;;;7.23;;
7173;SDS011;3628;48.654;8.932;2023-01-24T01:37:32;10.83;;;7.50;;
7173;SDS011;3628;48.654;8.932;2023-01-24T01:39:58;11.57;;;8.00;;
7173;SDS011;3628;48.654;8.932;2023-01-24T01:42:23;9.60;;;7.50;;
7173;SDS011;3628;48.654;8.932;2023-01-24T01:44:49;10.40;;;7.67;;
7173;SDS011;3628;48.654;8.932;2023-01-24T01:47:23;9.63;;;7.87;;
7173;SDS011;3628;48.654;8.932;2023-01-24T01:52:41;10.53;;;7.77;;
7173;SDS011;3628;48.654;8.932;2023-01-24T01:55:08;11.00;;;7.20;;
7173;SDS011;3628;48.654;8.932;2023-01-24T01:57:39;8.77;;;7.17;;
7173;SDS011;3628;48.654;8.932;2023-01-24T02:00:09;9.87;;;7.00;;
7173;SDS011;3628;48.654;8.932;2023-01-24T02:02:37;11.33;;;7.33;;
7173;SDS011;3628;48.654;8.932;2023-01-24T02:05:06;11.17;;;6.87;;
7173;SDS011;3628;48.654;8.932;2023-01-24T02:07:36;10.00;;;7.13;;
7173;SDS011;3628;48.654;8.932;2023-01-24T02:10:25;9.90;;;6.87;;
7173;SDS011;3628;48.654;8.932;2023-01-24T02:13:12;12.23;;;8.10;;
7173;SDS011;3628;48.654;8.932;2023-01-24T02:15:38;10.80;;;7.43;;
7173;SDS011;3628;48.654;8.932;2023-01-24T02:18:38;17.77;;;8.30;;
7173;SDS011;3628;48.654;8.932;2023-01-24T02:21:14;10.97;;;7.43;;
7173;SDS011;3628;48.654;8.932;2023-01-24T02:26:21;10.50;;;7.40;;
7173;SDS011;3628;48.654;8.932;2023-01-24T02:28:56;12.73;;;8.27;;
7173;SDS011;3628;48.654;8.932;2023-01-24T02:31:50;9.80;;;7.70;;
7173;SDS011;3628;48.654;8.932;2023-01-24T02:34:21;9.73;;;6.63;;
7173;SDS011;3628;48.654;8.932;2023-01-24T02:36:49;11.27;;;7.20;;
7173;SDS011;3628;48.654;8.932;2023-01-24T02:39:21;19.43;;;8.50;;
7173;SDS011;3628;48.654;8.932;2023-01-24T02:42:34;11.97;;;7.80;;
7173;SDS011;3628;48.654;8.932;2023-01-24T02:44:46;11.40;;;8.13;;
7173;SDS011;3628;48.654;8.932;2023-01-24T02:47:18;13.23;;;8.33;;
7173;SDS011;3628;48.654;8.932;2023-01-24T02:49:44;11.23;;;7.73;;
7173;SDS011;3628;48.654;8.932;2023-01-24T02:52:09;11.43;;;8.53;;
7173;SDS011;3628;48.654;8.932;2023-01-24T02:54:54;11.57;;;8.00;;
7173;SDS011;3628;48.654;8.932;2023-01-24T02:57:19;11.13;;;7.43;;
7173;SDS011;3628;48.654;8.932;2023-01-24T03:00:04;12.60;;;8.27;;
7173;SDS011;3628;48.654;8.932;2023-01-24T03:02:31;10.77;;;7.50;;
7173;SDS011;3628;48.654;8.932;2023-01-24T03:04:57;10.73;;;8.00;;
7173;SDS011;3628;48.654;8.932;2023-01-24T03:07:22;12.33;;;8.50;;
7173;SDS011;3628;48.654;8.932;2023-01-24T03:09:48;14.73;;;8.30;;
7173;SDS011;3628;48.654;8.932;2023-01-24T03:12:14;11.40;;;7.67;;
7173;SDS011;3628;48.654;8.932;2023-01-24T03:14:58;11.40;;;8.00;;
7173;SDS011;3628;48.654;8.932;2023-01-24T03:17:42;12.27;;;7.77;;
7173;SDS011;3628;48.654;8.932;2023-01-24T03:20:27;11.27;;;7.83;;
7173;SDS011;3628;48.654;8.932;2023-01-24T03:23:11;14.07;;;8.53;;
7173;SDS011;3628;48.654;8.932;2023-01-24T03:25:56;10.87;;;8.20;;
7173;SDS011;3628;48.654;8.932;2023-01-24T03:28:41;10.00;;;7.70;;
7173;SDS011;3628;48.654;8.932;2023-01-24T03:31:26;12.67;;;9.00;;
7173;SDS011;3628;48.654;8.932;2023-01-24T03:34:10;11.63;;;7.87;;
7173;SDS011;3628;48.654;8.932;2023-01-24T03:36:55;10.33;;;7.77;;
7173;SDS011;3628;48.654;8.932;2023-01-24T03:39:21;12.40;;;7.93;;
7173;SDS011;3628;48.654;8.932;2023-01-24T03:42:05;12.90;;;8.63;;
7173;SDS011;3628;48.654;8.932;2023-01-24T03:44:31;12.20;;;8.50;;
7173;SDS011;3628;48.654;8.932;2023-01-24T03:46:56;12.30;;;9.10;;
7173;SDS011;3628;48.654;8.932;2023-01-24T03:49:22;12.90;;;8.23;;
7173;SDS011;3628;48.654;8.932;2023-01-24T03:52:07;12.50;;;8.10;;
7173;SDS011;3628;48.654;8.932;2023-01-24T03:54:56;14.43;;;9.37;;
7173;SDS011;3628;48.654;8.932;2023-01-24T03:57:23;11.50;;;7.40;;
7173;SDS011;3628;48.654;8.932;2023-01-24T03:59:49;11.93;;;8.53;;
7173;SDS011;3628;48.654;8.932;2023-01-24T04:02:15;11.87;;;8.53;;
7173;SDS011;3628;48.654;8.932;2023-01-24T04:04:41;14.67;;;8.57;;
7173;SDS011;3628;48.654;8.932;2023-01-24T04:07:26;15.57;;;8.93;;
7173;SDS011;3628;48.654;8.932;2023-01-24T04:09:52;15.43;;;8.60;;
7173;SDS011;3628;48.654;8.932;2023-01-24T04:12:17;12.33;;;8.57;;
7173;SDS011;3628;48.654;8.932;2023-01-24T04:14:43;13.57;;;8.77;;
7173;SDS011;3628;48.654;8.932;2023-01-24T04:17:09;12.37;;;8.70;;
7173;SDS011;3628;48.654;8.932;2023-01-24T04:19:35;16.23;;;8.97;;
7173;SDS011;3628;48.654;8.932;2023-01-24T04:22:00;13.83;;;8.83;;
7173;SDS011;3628;48.654;8.932;2023-01-24T04:24:26;15.40;;;9.33;;
7173;SDS011;3628;48.654;8.932;2023-01-24T04:26:51;15.10;;;8.90;;
7173;SDS011;3628;48.654;8.932;2023-01-24T04:29:17;12.87;;;8.27;;
7173;SDS011;3628;48.654;8.932;2023-01-24T04:31:43;14.37;;;8.70;;
7173;SDS011;3628;48.654;8.932;2023-01-24T04:34:08;13.20;;;8.67;;
7173;SDS011;3628;48.654;8.932;2023-01-24T04:36:34;13.70;;;8.80;;
7173;SDS011;3628;48.654;8.932;2023-01-24T04:38:59;12.37;;;7.97;;
7173;SDS011;3628;48.654;8.932;2023-01-24T04:41:25;12.57;;;8.70;;
7173;SDS011;3628;48.654;8.932;2023-01-24T04:43:50;11.77;;;8.10;;
7173;SDS011;3628;48.654;8.932;2023-01-24T04:46:16;14.90;;;8.87;;
7173;SDS011;3628;48.654;8.932;2023-01-24T04:48:42;12.77;;;8.47;;
7173;SDS011;3628;48.654;8.932;2023-01-24T04:51:08;13.40;;;8.27;;
7173;SDS011;3628;48.654;8.932;2023-01-24T04:53:37;12.83;;;8.23;;
7173;SDS011;3628;48.654;8.932;2023-01-24T04:56:04;14.40;;;9.33;;
7173;SDS011;3628;48.654;8.932;2023-01-24T04:58:31;15.20;;;10.00;;
7173;SDS011;3628;48.654;8.932;2023-01-24T05:00:57;13.57;;;8.83;;
7173;SDS011;3628;48.654;8.932;2023-01-24T05:03:23;16.17;;;9.27;;
7173;SDS011;3628;48.654;8.932;2023-01-24T05:05:49;14.57;;;9.10;;
7173;SDS011;3628;48.654;8.932;2023-01-24T05:08:15;14.60;;;8.60;;
7173;SDS011;3628;48.654;8.932;2023-01-24T05:10:41;15.30;;;9.90;;
7173;SDS011;3628;48.654;8.932;2023-01-24T05:13:06;13.83;;;9.63;;
7173;SDS011;3628;48.654;8.932;2023-01-24T05:15:32;14.70;;;9.90;;
7173;SDS011;3628;48.654;8.932;2023-01-24T05:17:57;14.63;;;9.17;;
7173;SDS011;3628;48.654;8.932;2023-01-24T05:20:23;13.53;;;9.13;;
7173;SDS011;3628;48.654;8.932;2023-01-24T05:22:48;12.90;;;9.40;;
7173;SDS011;3628;48.654;8.932;2023-01-24T05:25:17;20.43;;;10.30;;
7173;SDS011;3628;48.654;8.932;2023-01-24T05:27:43;12.67;;;8.57;;
7173;SDS011;3628;48.654;8.932;2023-01-24T05:30:09;16.50;;;9.67;;
7173;SDS011;3628;48.654;8.932;2023-01-24T05:32:36;17.60;;;9.43;;
7173;SDS011;3628;48.654;8.932;2023-01-24T05:35:02;13.63;;;8.60;;
7173;SDS011;3628;48.654;8.932;2023-01-24T05:37:28;19.47;;;11.13;;
7173;SDS011;3628;48.654;8.932;2023-01-24T05:39:54;14.63;;;8.47;;
7173;SDS011;3628;48.654;8.932;2023-01-24T05:42:19;14.70;;;9.30;;
7173;SDS011;3628;48.654;8.932;2023-01-24T05:44:45;15.63;;;9.43;;
7173;SDS011;3628;48.654;8.932;2023-01-24T05:47:10;14.77;;;9.80;;
7173;SDS011;3628;48.654;8.932;2023-01-24T05:49:36;24.73;;;11.03;;
7173;SDS011;3628;48.654;8.932;2023-01-24T05:52:01;16.87;;;10.33;;
7173;SDS011;3628;48.654;8.932;2023-01-24T05:54:27;14.60;;;9.77;;
7173;SDS011;3628;48.654;8.932;2023-01-24T05:56:53;17.23;;;9.77;;
7173;SDS011;3628;48.654;8.932;2023-01-24T05:59:18;15.23;;;9.47;;
7173;SDS011;3628;48.654;8.932;2023-01-24T06:01:44;20.40;;;10.30;;
7173;SDS011;3628;48.654;8.932;2023-01-24T06:04:09;34.13;;;11.13;;
7173;SDS011;3628;48.654;8.932;2023-01-24T06:06:35;14.97;;;9.37;;
7173;SDS011;3628;48.654;8.932;2023-01-24T06:09:01;17.63;;;9.53;;
7173;SDS011;3628;48.654;8.932;2023-01-24T06:11:26;15.63;;;9.60;;
7173;SDS011;3628;48.654;8.932;2023-01-24T06:13:53;20.90;;;9.83;;
7173;SDS011;3628;48.654;8.932;2023-01-24T06:16:21;15.33;;;9.50;;
7173;SDS011;3628;48.654;8.932;2023-01-24T06:18:48;17.87;;;9.43;;
7173;SDS011;3628;48.654;8.932;2023-01-24T06:24:01;13.70;;;8.93;;
7173;SDS011;3628;48.654;8.932;2023-01-24T06:26:27;29.30;;;10.30;;
7173;SDS011;3628;48.654;8.932;2023-01-24T06:28:53;14.73;;;8.73;;
7173;SDS011;3628;48.654;8.932;2023-01-24T06:36:39;15.30;;;9.07;;
7173;SDS011;3628;48.654;8.932;2023-01-24T06:39:18;13.53;;;9.57;;
7173;SDS011;3628;48.654;8.932;2023-01-24T06:41:46;19.77;;;10.43;;
7173;SDS011;3628;48.654;8.932;2023-01-24T06:44:12;37.20;;;11.00;;
7173;SDS011;3628;48.654;8.932;2023-01-24T06:46:38;15.80;;;9.30;;
7173;SDS011;3628;48.654;8.932;2023-01-24T06:49:04;15.37;;;9.03;;
7173;SDS011;3628;48.654;8.932;2023-01-24T06:51:30;15.13;;;9.50;;
7173;SDS011;3628;48.654;8.932;2023-01-24T06:53:55;31.90;;;10.10;;
7173;SDS011;3628;48.654;8.932;2023-01-24T06:56:21;13.87;;;9.97;;
7173;SDS011;3628;48.654;8.932;2023-01-24T06:58:46;17.33;;;9.90;;
7173;SDS011;3628;48.654;8.932;2023-01-24T07:01:12;13.57;;;9.17;;
7173;SDS011;3628;48.654;8.932;2023-01-24T07:03:38;14.77;;;9.37;;
7173;SDS011;3628;48.654;8.932;2023-01-24T07:06:03;13.77;;;9.00;;
7173;SDS011;3628;48.654;8.932;2023-01-24T07:08:29;16.17;;;9.77;;
7173;SDS011;3628;48.654;8.932;2023-01-24T07:10:56;20.07;;;10.43;;
7173;SDS011;3628;48.654;8.932;2023-01-24T07:13:23;49.10;;;12.03;;
7173;SDS011;3628;48.654;8.932;2023-01-24T07:15:49;17.90;;;9.63;;
7173;SDS011;3628;48.654;8.932;2023-01-24T07:18:15;14.77;;;9.87;;
7173;SDS011;3628;48.654;8.932;2023-01-24T07:20:41;15.87;;;9.87;;
7173;SDS011;3628;48.654;8.932;2023-01-24T07:23:23;16.87;;;10.57;;
7173;SDS011;3628;48.654;8.932;2023-01-24T07:25:53;16.57;;;10.30;;
7173;SDS011;3628;48.654;8.932;2023-01-24T07:28:19;19.03;;;11.50;;
7173;SDS011;3628;48.654;8.932;2023-01-24T07:30:44;15.60;;;10.43;;
7173;SDS011;3628;48.654;8.932;2023-01-24T07:33:13;18.53;;;10.80;;
7173;SDS011;3628;48.654;8.932;2023-01-24T07:35:40;20.27;;;12.03;;
7173;SDS011;3628;48.654;8.932;2023-01-24T07:38:06;18.17;;;10.90;;
7173;SDS011;3628;48.654;8.932;2023-01-24T07:40:32;16.73;;;10.40;;
7173;SDS011;3628;48.654;8.932;2023-01-24T07:43:00;17.17;;;9.97;;
7173;SDS011;3628;48.654;8.932;2023-01-24T07:45:27;17.77;;;10.57;;
7173;SDS011;3628;48.654;8.932;2023-01-24T07:47:54;18.07;;;11.37;;
7173;SDS011;3628;48.654;8.932;2023-01-24T07:50:20;17.17;;;10.67;;
7173;SDS011;3628;48.654;8.932;2023-01-24T07:52:49;17.60;;;11.17;;
7173;SDS011;3628;48.654;8.932;2023-01-24T07:55:15;18.87;;;11.10;;
7173;SDS011;3628;48.654;8.932;2023-01-24T07:57:41;20.23;;;11.13;;
7173;SDS011;3628;48.654;8.932;2023-01-24T08:00:07;20.93;;;11.50;;
7173;SDS011;3628;48.654;8.932;2023-01-24T08:02:33;21.00;;;12.67;;
7173;SDS011;3628;48.654;8.932;2023-01-24T08:04:58;19.33;;;12.03;;
7173;SDS011;3628;48.654;8.932;2023-01-24T08:07:24;18.00;;;10.73;;
7173;SDS011;3628;48.654;8.932;2023-01-24T08:09:49;17.43;;;11.27;;
7173;SDS011;3628;48.654;8.932;2023-01-24T08:12:15;21.13;;;11.87;;
7173;SDS011;3628;48.654;8.932;2023-01-24T08:14:41;19.23;;;12.87;;
7173;SDS011;3628;48.654;8.932;2023-01-24T08:17:06;27.53;;;12.70;;
7173;SDS011;3628;48.654;8.932;2023-01-24T08:19:32;18.17;;;11.63;;
7173;SDS011;3628;48.654;8.932;2023-01-24T08:21:57;97.70;;;16.50;;
7173;SDS011;3628;48.654;8.932;2023-01-24T08:24:23;21.30;;;12.50;;
7173;SDS011;3628;48.654;8.932;2023-01-24T08:26:49;17.37;;;10.50;;
7173;SDS011;3628;48.654;8.932;2023-01-24T08:29:16;19.03;;;11.17;;
7173;SDS011;3628;48.654;8.932;2023-01-24T08:31:41;21.07;;;11.13;;
7173;SDS011;3628;48.654;8.932;2023-01-24T08:34:08;16.57;;;10.30;;
7173;SDS011;3628;48.654;8.932;2023-01-24T08:36:34;23.37;;;10.77;;
7173;SDS011;3628;48.654;8.932;2023-01-24T08:39:00;17.80;;;9.97;;
7173;SDS011;3628;48.654;8.932;2023-01-24T08:41:27;15.63;;;10.20;;
7173;SDS011;3628;48.654;8.932;2023-01-24T08:43:53;18.20;;;10.90;;
7173;SDS011;3628;48.654;8.932;2023-01-24T08:46:19;15.97;;;10.20;;
7173;SDS011;3628;48.654;8.932;2023-01-24T08:48:44;14.30;;;9.00;;
7173;SDS011;3628;48.654;8.932;2023-01-24T08:51:10;15.03;;;9.57;;
7173;SDS011;3628;48.654;8.932;2023-01-24T08:53:35;14.43;;;9.63;;
7173;SDS011;3628;48.654;8.932;2023-01-24T08:56:01;14.17;;;9.53;;
7173;SDS011;3628;48.654;8.932;2023-01-24T08:58:27;16.17;;;10.43;;
7173;SDS011;3628;48.654;8.932;2023-01-24T09:00:53;19.60;;;9.60;;
7173;SDS011;3628;48.654;8.932;2023-01-24T09:03:18;13.43;;;9.23;;
7173;SDS011;3628;48.654;8.932;2023-01-24T09:05:44;14.23;;;9.90;;
7173;SDS011;3628;48.654;8.932;2023-01-24T09:08:10;16.20;;;10.07;;
7173;SDS011;3628;48.654;8.932;2023-01-24T09:10:36;15.30;;;9.47;;
7173;SDS011;3628;48.654;8.932;2023-01-24T09:13:02;14.63;;;9.20;;
7173;SDS011;3628;48.654;8.932;2023-01-24T09:15:28;14.23;;;9.33;;
7173;SDS011;3628;48.654;8.932;2023-01-24T09:17:54;16.17;;;9.70;;
7173;SDS011;3628;48.654;8.932;2023-01-24T09:20:20;16.13;;;10.00;;
7173;SDS011;3628;48.654;8.932;2023-01-24T09:22:46;16.03;;;9.57;;
7173;SDS011;3628;48.654;8.932;2023-01-24T09:25:11;17.33;;;9.40;;
7173;SDS011;3628;48.654;8.932;2023-01-24T09:27:37;14.43;;;9.67;;
7173;SDS011;3628;48.654;8.932;2023-01-24T09:30:07;14.17;;;9.50;;
7173;SDS011;3628;48.654;8.932;2023-01-24T09:32:34;17.73;;;9.07;;
7173;SDS011;3628;48.654;8.932;2023-01-24T09:35:00;18.60;;;10.07;;
7173;SDS011;3628;48.654;8.932;2023-01-24T09:37:25;14.83;;;9.17;;
7173;SDS011;3628;48.654;8.932;2023-01-24T09:39:51;14.57;;;9.17;;
7173;SDS011;3628;48.654;8.932;2023-01-24T09:42:37;14.90;;;10.20;;
7173;SDS011;3628;48.654;8.932;2023-01-24T09:50:18;17.20;;;9.00;;
7173;SDS011;3628;48.654;8.932;2023-01-24T09:52:48;16.50;;;10.03;;
7173;SDS011;3628;48.654;8.932;2023-01-24T09:55:22;16.50;;;10.20;;
7173;SDS011;3628;48.654;8.932;2023-01-24T10:00:43;25.10;;;10.40;;
7173;SDS011;3628;48.654;8.932;2023-01-24T10:03:20;14.87;;;9.03;;
7173;SDS011;3628;48.654;8.932;2023-01-24T10:05:49;16.13;;;9.03;;
7173;SDS011;3628;48.654;8.932;2023-01-24T10:10:58;16.27;;;10.50;;
7173;SDS011;3628;48.654;8.932;2023-01-24T10:16:34;17.80;;;10.37;;
7173;SDS011;3628;48.654;8.932;2023-01-24T10:19:10;15.87;;;9.20;;
7173;SDS011;3628;48.654;8.932;2023-01-24T10:24:51;13.77;;;9.23;;
7173;SDS011;3628;48.654;8.932;2023-01-24T10:27:32;16.23;;;9.47;;
7173;SDS011;3628;48.654;8.932;2023-01-24T10:30:13;16.00;;;9.90;;
7173;SDS011;3628;48.654;8.932;2023-01-24T10:32:47;17.00;;;9.60;;
7173;SDS011;3628;48.654;8.932;2023-01-24T10:35:19;15.77;;;9.73;;
7173;SDS011;3628;48.654;8.932;2023-01-24T10:38:05;18.03;;;11.27;;
7173;SDS011;3628;48.654;8.932;2023-01-24T10:40:35;36.33;;;20.27;;
7173;SDS011;3628;48.654;8.932;2023-01-24T10:43:23;43.20;;;24.47;;
7173;SDS011;3628;48.654;8.932;2023-01-24T10:46:03;24.37;;;14.13;;
7173;SDS011;3628;48.654;8.932;2023-01-24T10:51:19;21.33;;;13.73;;
7173;SDS011;3628;48.654;8.932;2023-01-24T10:53:47;25.00;;;14.27;;
7173;SDS011;3628;48.654;8.932;2023-01-24T10:56:15;18.40;;;10.93;;
7173;SDS011;3628;48.654;8.932;2023-01-24T11:04:20;15.47;;;9.73;;
7173;SDS011;3628;48.654;8.932;2023-01-24T11:06:49;14.20;;;9.07;;
7173;SDS011;3628;48.654;8.932;2023-01-24T11:09:16;14.30;;;9.33;;
7173;SDS011;3628;48.654;8.932;2023-01-24T11:11:46;13.70;;;9.40;;
7173;SDS011;3628;48.654;8.932;2023-01-24T11:14:16;15.23;;;9.03;;
7173;SDS011;3628;48.654;8.932;2023-01-24T11:16:48;12.70;;;8.53;;
7173;SDS011;3628;48.654;8.932;2023-01-24T11:21:58;11.60;;;8.50;;
7173;SDS011;3628;48.654;8.932;2023-01-24T11:24:26;16.73;;;9.40;;
7173;SDS011;3628;48.654;8.932;2023-01-24T11:26:54;14.40;;;8.63;;
7173;SDS011;3628;48.654;8.932;2023-01-24T11:29:22;13.47;;;9.23;;
7173;SDS011;3628;48.654;8.932;2023-01-24T11:31:49;13.50;;;8.63;;
7173;SDS011;3628;48.654;8.932;2023-01-24T11:50:36;12.13;;;7.70;;
7173;SDS011;3628;48.654;8.932;2023-01-24T12:09:21;12.70;;;7.93;;
7173;SDS011;3628;48.654;8.932;2023-01-24T12:17:16;11.70;;;7.97;;
7173;SDS011;3628;48.654;8.932;2023-01-24T12:22:35;12.23;;;7.20;;
7173;SDS011;3628;48.654;8.932;2023-01-24T12:25:05;10.93;;;6.87;;
7173;SDS011;3628;48.654;8.932;2023-01-24T12:27:45;8.00;;;6.27;;
7173;SDS011;3628;48.654;8.932;2023-01-24T12:32:47;11.17;;;7.67;;
7173;SDS011;3628;48.654;8.932;2023-01-24T12:35:25;10.10;;;7.40;;
7173;SDS011;3628;48.654;8.932;2023-01-24T12:43:51;10.67;;;7.33;;
7173;SDS011;3628;48.654;8.932;2023-01-24T12:51:53;10.33;;;7.13;;
7173;SDS011;3628;48.654;8.932;2023-01-24T12:54:30;13.77;;;8.30;;
7173;SDS011;3628;48.654;8.932;2023-01-24T12:57:11;14.00;;;8.63;;
7173;SDS011;3628;48.654;8.932;2023-01-24T12:59:41;10.80;;;7.17;;
7173;SDS011;3628;48.654;8.932;2023-01-24T13:02:19;10.70;;;7.40;;
7173;SDS011;3628;48.654;8.932;2023-01-24T13:13:35;9.97;;;6.93;;
7173;SDS011;3628;48.654;8.932;2023-01-24T13:29:20;11.63;;;7.23;;
7173;SDS011;3628;48.654;8.932;2023-01-24T13:32:11;12.00;;;7.00;;
7173;SDS011;3628;48.654;8.932;2023-01-24T13:34:41;10.40;;;6.70;;
7173;SDS011;3628;48.654;8.932;2023-01-24T13:37:25;12.50;;;7.67;;
7173;SDS011;3628;48.654;8.932;2023-01-24T13:40:00;9.63;;;6.40;;
7173;SDS011;3628;48.654;8.932;2023-01-24T13:42:32;10.60;;;7.30;;
7173;SDS011;3628;48.654;8.932;2023-01-24T13:45:17;10.13;;;6.43;;
7173;SDS011;3628;48.654;8.932;2023-01-24T13:47:49;9.73;;;6.03;;
7173;SDS011;3628;48.654;8.932;2023-01-24T13:50:16;10.17;;;6.90;;
7173;SDS011;3628;48.654;8.932;2023-01-24T13:52:44;12.63;;;7.07;;
7173;SDS011;3628;48.654;8.932;2023-01-24T13:57:47;9.73;;;6.70;;
7173;SDS011;3628;48.654;8.932;2023-01-24T14:06:03;10.93;;;7.17;;
7173;SDS011;3628;48.654;8.932;2023-01-24T14:08:32;10.30;;;6.50;;
7173;SDS011;3628;48.654;8.932;2023-01-24T14:21:53;10.63;;;6.67;;
7173;SDS011;3628;48.654;8.932;2023-01-24T14:24:23;12.27;;;6.37;;
7173;SDS011;3628;48.654;8.932;2023-01-24T14:26:55;9.50;;;6.50;;
7173;SDS011;3628;48.654;8.932;2023-01-24T14:29:41;11.27;;;7.47;;
7173;SDS011;3628;48.654;8.932;2023-01-24T14:32:44;11.83;;;7.17;;
7173;SDS011;3628;48.654;8.932;2023-01-24T14:37:45;11.70;;;6.00;;
7173;SDS011;3628;48.654;8.932;2023-01-24T14:42:44;9.53;;;6.57;;
7173;SDS011;3628;48.654;8.932;2023-01-24T14:45:12;9.03;;;6.80;;
7173;SDS011;3628;48.654;8.932;2023-01-24T14:47:41;9.07;;;6.10;;
7173;SDS011;3628;48.654;8.932;2023-01-24T14:50:18;10.90;;;6.80;;
7173;SDS011;3628;48.654;8.932;2023-01-24T14:52:46;8.70;;;6.13;;
7173;SDS011;3628;48.654;8.932;2023-01-24T14:55:22;13.73;;;6.60;;
7173;SDS011;3628;48.654;8.932;2023-01-24T14:57:51;9.67;;;6.53;;
7173;SDS011;3628;48.654;8.932;2023-01-24T15:00:18;9.73;;;6.23;;
7173;SDS011;3628;48.654;8.932;2023-01-24T15:02:58;10.53;;;6.17;;
7173;SDS011;3628;48.654;8.932;2023-01-24T15:05:33;9.63;;;6.43;;
7173;SDS011;3628;48.654;8.932;2023-01-24T15:08:02;10.47;;;7.17;;
7173;SDS011;3628;48.654;8.932;2023-01-24T15:10:31;9.00;;;6.30;;
7173;SDS011;3628;48.654;8.932;2023-01-24T15:13:00;9.07;;;6.30;;
7173;SDS011;3628;48.654;8.932;2023-01-24T15:15:27;12.97;;;8.07;;
7173;SDS011;3628;48.654;8.932;2023-01-24T15:17:56;11.73;;;6.70;;
7173;SDS011;3628;48.654;8.932;2023-01-24T15:20:25;11.50;;;6.87;;
7173;SDS011;3628;48.654;8.932;2023-01-24T15:22:53;13.00;;;8.27;;
7173;SDS011;3628;48.654;8.932;2023-01-24T15:25:25;11.17;;;7.97;;
7173;SDS011;3628;48.654;8.932;2023-01-24T15:27:53;10.73;;;7.50;;
7173;SDS011;3628;48.654;8.932;2023-01-24T15:30:26;9.57;;;6.93;;
7173;SDS011;3628;48.654;8.932;2023-01-24T15:35:37;10.60;;;7.30;;
7173;SDS011;3628;48.654;8.932;2023-01-24T15:40:31;9.77;;;5.87;;
7173;SDS011;3628;48.654;8.932;2023-01-24T15:42:58;9.40;;;6.13;;
7173;SDS011;3628;48.654;8.932;2023-01-24T15:45:48;9.33;;;6.27;;
7173;SDS011;3628;48.654;8.932;2023-01-24T15:51:40;9.97;;;6.20;;
7173;SDS011;3628;48.654;8.932;2023-01-24T15:54:09;9.47;;;6.30;;
7173;SDS011;3628;48.654;8.932;2023-01-24T15:56:36;10.20;;;6.33;;
7173;SDS011;3628;48.654;8.932;2023-01-24T15:59:05;11.07;;;6.60;;
7173;SDS011;3628;48.654;8.932;2023-01-24T16:01:40;8.00;;;6.13;;
7173;SDS011;3628;48.654;8.932;2023-01-24T16:04:12;12.13;;;8.53;;
7173;SDS011;3628;48.654;8.932;2023-01-24T16:06:45;9.73;;;7.00;;
7173;SDS011;3628;48.654;8.932;2023-01-24T16:09:11;9.17;;;5.93;;
7173;SDS011;3628;48.654;8.932;2023-01-24T16:11:38;9.80;;;6.40;;
7173;SDS011;3628;48.654;8.932;2023-01-24T16:14:06;9.97;;;6.83;;
7173;SDS011;3628;48.654;8.932;2023-01-24T16:16:37;11.97;;;6.93;;
7173;SDS011;3628;48.654;8.932;2023-01-24T16:19:07;10.17;;;6.87;;
7173;SDS011;3628;48.654;8.932;2023-01-24T16:21:39;11.40;;;7.17;;
7173;SDS011;3628;48.654;8.932;2023-01-24T16:24:05;11.90;;;7.90;;
7173;SDS011;3628;48.654;8.932;2023-01-24T16:26:30;11.73;;;7.80;;
7173;SDS011;3628;48.654;8.932;2023-01-24T16:28:58;13.13;;;7.97;;
7173;SDS011;3628;48.654;8.932;2023-01-24T16:31:24;13.37;;;8.33;;
7173;SDS011;3628;48.654;8.932;2023-01-24T16:33:49;12.53;;;7.83;;
7173;SDS011;3628;48.654;8.932;2023-01-24T16:36:15;12.10;;;7.67;;
7173;SDS011;3628;48.654;8.932;2023-01-24T16:38:41;12.43;;;8.00;;
7173;SDS011;3628;48.654;8.932;2023-01-24T16:41:09;15.47;;;9.03;;
7173;SDS011;3628;48.654;8.932;2023-01-24T16:43:35;12.80;;;7.87;;
7173;SDS011;3628;48.654;8.932;2023-01-24T16:46:00;11.13;;;8.23;;
7173;SDS011;3628;48.654;8.932;2023-01-24T16:48:26;14.63;;;9.40;;
7173;SDS011;3628;48.654;8.932;2023-01-24T16:50:54;14.87;;;10.50;;
7173;SDS011;3628;48.654;8.932;2023-01-24T16:53:19;13.50;;;8.53;;
7173;SDS011;3628;48.654;8.932;2023-01-24T16:55:53;13.63;;;8.70;;
7173;SDS011;3628;48.654;8.932;2023-01-24T16:58:20;15.43;;;8.87;;
7173;SDS011;3628;48.654;8.932;2023-01-24T17:00:45;13.57;;;9.00;;
7173;SDS011;3628;48.654;8.932;2023-01-24T17:03:11;15.43;;;9.10;;
7173;SDS011;3628;48.654;8.932;2023-01-24T17:05:38;14.53;;;8.87;;
7173;SDS011;3628;48.654;8.932;2023-01-24T17:08:05;14.60;;;9.20;;
7173;SDS011;3628;48.654;8.932;2023-01-24T17:10:31;16.03;;;9.10;;
7173;SDS011;3628;48.654;8.932;2023-01-24T17:12:56;19.60;;;10.70;;
7173;SDS011;3628;48.654;8.932;2023-01-24T17:15:22;16.27;;;9.27;;
7173;SDS011;3628;48.654;8.932;2023-01-24T17:17:47;15.57;;;10.67;;
7173;SDS011;3628;48.654;8.932;2023-01-24T17:20:13;15.67;;;10.60;;
7173;SDS011;3628;48.654;8.932;2023-01-24T17:22:39;15.57;;;10.03;;
7173;SDS011;3628;48.654;8.932;2023-01-24T17:25:05;12.43;;;9.00;;
7173;SDS011;3628;48.654;8.932;2023-01-24T17:27:31;15.40;;;9.73;;
7173;SDS011;3628;48.654;8.932;2023-01-24T17:29:56;72.03;;;12.83;;
7173;SDS011;3628;48.654;8.932;2023-01-24T17:32:22;15.23;;;9.77;;
7173;SDS011;3628;48.654;8.932;2023-01-24T17:34:47;17.03;;;9.93;;
7173;SDS011;3628;48.654;8.932;2023-01-24T17:37:13;65.77;;;12.97;;
7173;SDS011;3628;48.654;8.932;2023-01-24T17:39:39;17.03;;;10.47;;
7173;SDS011;3628;48.654;8.932;2023-01-24T17:42:04;15.37;;;10.13;;